sensor_id;sensor_type;location;lat;lon;timestamp;P1;durP1;ratioP1;P2;durP2;ratioP2
39454;SDS011;25155;41.890;23.446;2023-04-03T00:00:38;2.28;;;1.67;;
39454;SDS011;25155;41.890;23.446;2023-04-03T00:03:05;1.85;;;1.50;;
39454;SDS011;25155;41.890;23.446;2023-04-03T00:05:33;2.58;;;1.73;;
39454;SDS011;25155;41.890;23.446;2023-04-03T00:08:02;2.33;;;1.67;;
39454;SDS011;25155;41.890;23.446;2023-04-03T00:10:33;3.40;;;2.20;;
39454;SDS011;25155;41.890;23.446;2023-04-03T00:13:00;3.35;;;2.10;;
39454;SDS011;25155;41.890;23.446;2023-04-03T00:15:28;2.67;;;1.75;;
39454;SDS011;25155;41.890;23.446;2023-04-03T00:17:55;2.05;;;1.60;;
39454;SDS011;25155;41.890;23.446;2023-04-03T00:20:22;1.42;;;1.33;;
39454;SDS011;25155;41.890;23.446;2023-04-03T00:22:50;1.70;;;1.40;;
39454;SDS011;25155;41.890;23.446;2023-04-03T00:25:18;1.20;;;1.10;;
39454;SDS011;25155;41.890;23.446;2023-04-03T00:27:46;2.10;;;1.65;;
39454;SDS011;25155;41.890;23.446;2023-04-03T00:30:14;2.45;;;1.50;;
39454;SDS011;25155;41.890;23.446;2023-04-03T00:32:42;2.67;;;1.70;;
39454;SDS011;25155;41.890;23.446;2023-04-03T00:35:09;2.50;;;1.73;;
39454;SDS011;25155;41.890;23.446;2023-04-03T00:37:37;2.28;;;1.63;;
39454;SDS011;25155;41.890;23.446;2023-04-03T00:40:04;2.00;;;1.45;;
39454;SDS011;25155;41.890;23.446;2023-04-03T00:42:35;1.48;;;1.30;;
39454;SDS011;25155;41.890;23.446;2023-04-03T00:47:57;2.08;;;1.60;;
39454;SDS011;25155;41.890;23.446;2023-04-03T00:50:26;2.72;;;1.70;;
39454;SDS011;25155;41.890;23.446;2023-04-03T00:52:55;1.73;;;1.33;;
39454;SDS011;25155;41.890;23.446;2023-04-03T00:55:24;2.70;;;1.67;;
39454;SDS011;25155;41.890;23.446;2023-04-03T00:57:53;1.52;;;1.42;;
39454;SDS011;25155;41.890;23.446;2023-04-03T01:00:23;2.28;;;1.55;;
39454;SDS011;25155;41.890;23.446;2023-04-03T01:02:51;2.70;;;1.70;;
39454;SDS011;25155;41.890;23.446;2023-04-03T01:05:19;2.00;;;1.50;;
39454;SDS011;25155;41.890;23.446;2023-04-03T01:07:48;2.17;;;1.50;;
39454;SDS011;25155;41.890;23.446;2023-04-03T01:10:17;2.05;;;1.58;;
39454;SDS011;25155;41.890;23.446;2023-04-03T01:12:46;1.55;;;1.35;;
39454;SDS011;25155;41.890;23.446;2023-04-03T01:15:17;1.20;;;1.10;;
39454;SDS011;25155;41.890;23.446;2023-04-03T01:17:46;1.45;;;1.30;;
39454;SDS011;25155;41.890;23.446;2023-04-03T01:23:27;2.45;;;1.42;;
39454;SDS011;25155;41.890;23.446;2023-04-03T01:26:02;1.30;;;1.10;;
39454;SDS011;25155;41.890;23.446;2023-04-03T01:28:31;1.95;;;1.50;;
39454;SDS011;25155;41.890;23.446;2023-04-03T01:31:02;1.95;;;1.52;;
39454;SDS011;25155;41.890;23.446;2023-04-03T01:33:38;2.28;;;1.30;;
39454;SDS011;25155;41.890;23.446;2023-04-03T01:36:06;2.17;;;1.60;;
39454;SDS011;25155;41.890;23.446;2023-04-03T01:38:34;1.90;;;1.38;;
39454;SDS011;25155;41.890;23.446;2023-04-03T01:41:01;1.75;;;1.38;;
39454;SDS011;25155;41.890;23.446;2023-04-03T01:43:28;2.17;;;1.48;;
39454;SDS011;25155;41.890;23.446;2023-04-03T01:45:55;2.08;;;1.58;;
39454;SDS011;25155;41.890;23.446;2023-04-03T01:48:22;2.53;;;1.50;;
39454;SDS011;25155;41.890;23.446;2023-04-03T01:50:51;2.70;;;1.77;;
39454;SDS011;25155;41.890;23.446;2023-04-03T01:53:18;2.50;;;1.65;;
39454;SDS011;25155;41.890;23.446;2023-04-03T01:55:45;2.33;;;1.63;;
39454;SDS011;25155;41.890;23.446;2023-04-03T01:58:12;2.25;;;1.60;;
39454;SDS011;25155;41.890;23.446;2023-04-03T02:00:39;1.85;;;1.40;;
39454;SDS011;25155;41.890;23.446;2023-04-03T02:03:07;2.05;;;1.65;;
39454;SDS011;25155;41.890;23.446;2023-04-03T02:05:34;1.73;;;1.38;;
39454;SDS011;25155;41.890;23.446;2023-04-03T02:08:02;1.50;;;1.30;;
39454;SDS011;25155;41.890;23.446;2023-04-03T02:10:30;1.88;;;1.48;;
39454;SDS011;25155;41.890;23.446;2023-04-03T02:12:57;3.13;;;1.60;;
39454;SDS011;25155;41.890;23.446;2023-04-03T02:15:24;2.00;;;1.38;;
39454;SDS011;25155;41.890;23.446;2023-04-03T02:17:52;1.55;;;1.38;;
39454;SDS011;25155;41.890;23.446;2023-04-03T02:20:19;2.22;;;1.42;;
39454;SDS011;25155;41.890;23.446;2023-04-03T02:22:46;1.73;;;1.30;;
39454;SDS011;25155;41.890;23.446;2023-04-03T02:25:15;1.52;;;1.42;;
39454;SDS011;25155;41.890;23.446;2023-04-03T02:27:43;1.45;;;1.17;;
39454;SDS011;25155;41.890;23.446;2023-04-03T02:30:10;1.17;;;1.10;;
39454;SDS011;25155;41.890;23.446;2023-04-03T02:32:39;1.50;;;1.40;;
39454;SDS011;25155;41.890;23.446;2023-04-03T02:35:07;1.75;;;1.30;;
39454;SDS011;25155;41.890;23.446;2023-04-03T02:37:35;2.13;;;1.50;;
39454;SDS011;25155;41.890;23.446;2023-04-03T02:40:03;2.33;;;1.58;;
39454;SDS011;25155;41.890;23.446;2023-04-03T02:42:32;1.85;;;1.50;;
39454;SDS011;25155;41.890;23.446;2023-04-03T02:45:00;1.63;;;1.40;;
39454;SDS011;25155;41.890;23.446;2023-04-03T02:47:27;1.40;;;1.30;;
39454;SDS011;25155;41.890;23.446;2023-04-03T02:49:54;1.58;;;1.33;;
39454;SDS011;25155;41.890;23.446;2023-04-03T02:52:21;1.40;;;1.30;;
39454;SDS011;25155;41.890;23.446;2023-04-03T02:54:48;2.25;;;1.48;;
39454;SDS011;25155;41.890;23.446;2023-04-03T02:57:16;1.65;;;1.40;;
39454;SDS011;25155;41.890;23.446;2023-04-03T02:59:46;1.25;;;1.20;;
39454;SDS011;25155;41.890;23.446;2023-04-03T03:02:13;1.77;;;1.40;;
39454;SDS011;25155;41.890;23.446;2023-04-03T03:04:40;1.55;;;1.25;;
39454;SDS011;25155;41.890;23.446;2023-04-03T03:07:07;1.20;;;1.10;;
39454;SDS011;25155;41.890;23.446;2023-04-03T03:09:35;1.20;;;1.08;;
39454;SDS011;25155;41.890;23.446;2023-04-03T03:12:02;1.85;;;1.45;;
39454;SDS011;25155;41.890;23.446;2023-04-03T03:14:29;1.63;;;1.35;;
39454;SDS011;25155;41.890;23.446;2023-04-03T03:16:58;1.52;;;1.40;;
39454;SDS011;25155;41.890;23.446;2023-04-03T03:19:25;2.03;;;1.40;;
39454;SDS011;25155;41.890;23.446;2023-04-03T03:21:52;1.58;;;1.38;;
39454;SDS011;25155;41.890;23.446;2023-04-03T03:24:20;2.20;;;1.50;;
39454;SDS011;25155;41.890;23.446;2023-04-03T03:26:47;2.60;;;1.50;;
39454;SDS011;25155;41.890;23.446;2023-04-03T03:29:14;1.80;;;1.60;;
39454;SDS011;25155;41.890;23.446;2023-04-03T03:31:41;2.38;;;1.83;;
39454;SDS011;25155;41.890;23.446;2023-04-03T03:34:10;1.55;;;1.42;;
39454;SDS011;25155;41.890;23.446;2023-04-03T03:36:38;2.30;;;1.50;;
39454;SDS011;25155;41.890;23.446;2023-04-03T03:39:06;2.05;;;1.55;;
39454;SDS011;25155;41.890;23.446;2023-04-03T03:41:33;2.13;;;1.48;;
39454;SDS011;25155;41.890;23.446;2023-04-03T03:44:00;1.40;;;1.30;;
39454;SDS011;25155;41.890;23.446;2023-04-03T03:46:27;3.10;;;1.90;;
39454;SDS011;25155;41.890;23.446;2023-04-03T03:48:54;2.60;;;1.88;;
39454;SDS011;25155;41.890;23.446;2023-04-03T03:51:23;2.67;;;1.85;;
39454;SDS011;25155;41.890;23.446;2023-04-03T03:53:50;1.80;;;1.55;;
39454;SDS011;25155;41.890;23.446;2023-04-03T03:56:17;2.13;;;1.50;;
39454;SDS011;25155;41.890;23.446;2023-04-03T03:58:45;2.03;;;1.50;;
39454;SDS011;25155;41.890;23.446;2023-04-03T04:01:12;2.10;;;1.27;;
39454;SDS011;25155;41.890;23.446;2023-04-03T04:03:40;1.88;;;1.40;;
39454;SDS011;25155;41.890;23.446;2023-04-03T04:06:07;1.40;;;1.30;;
39454;SDS011;25155;41.890;23.446;2023-04-03T04:08:36;1.65;;;1.50;;
39454;SDS011;25155;41.890;23.446;2023-04-03T04:11:03;1.70;;;1.50;;
39454;SDS011;25155;41.890;23.446;2023-04-03T04:13:30;2.92;;;1.83;;
39454;SDS011;25155;41.890;23.446;2023-04-03T04:15:57;1.95;;;1.60;;
39454;SDS011;25155;41.890;23.446;2023-04-03T04:18:24;2.35;;;1.70;;
39454;SDS011;25155;41.890;23.446;2023-04-03T04:20:51;2.00;;;1.60;;
39454;SDS011;25155;41.890;23.446;2023-04-03T04:23:19;2.22;;;1.77;;
39454;SDS011;25155;41.890;23.446;2023-04-03T04:25:48;1.95;;;1.50;;
39454;SDS011;25155;41.890;23.446;2023-04-03T04:28:15;2.13;;;1.60;;
39454;SDS011;25155;41.890;23.446;2023-04-03T04:30:43;3.22;;;2.08;;
39454;SDS011;25155;41.890;23.446;2023-04-03T04:33:10;2.95;;;2.03;;
39454;SDS011;25155;41.890;23.446;2023-04-03T04:35:39;3.58;;;2.33;;
39454;SDS011;25155;41.890;23.446;2023-04-03T04:38:08;3.85;;;2.35;;
39454;SDS011;25155;41.890;23.446;2023-04-03T04:40:35;3.25;;;2.15;;
39454;SDS011;25155;41.890;23.446;2023-04-03T04:43:04;3.60;;;2.13;;
39454;SDS011;25155;41.890;23.446;2023-04-03T04:45:32;2.33;;;1.67;;
39454;SDS011;25155;41.890;23.446;2023-04-03T04:47:59;2.67;;;1.90;;
39454;SDS011;25155;41.890;23.446;2023-04-03T04:50:26;2.17;;;1.65;;
39454;SDS011;25155;41.890;23.446;2023-04-03T04:52:53;1.60;;;1.50;;
39454;SDS011;25155;41.890;23.446;2023-04-03T04:55:20;2.70;;;1.70;;
39454;SDS011;25155;41.890;23.446;2023-04-03T04:57:47;1.75;;;1.50;;
39454;SDS011;25155;41.890;23.446;2023-04-03T05:00:16;2.97;;;2.00;;
39454;SDS011;25155;41.890;23.446;2023-04-03T05:02:44;2.65;;;1.63;;
39454;SDS011;25155;41.890;23.446;2023-04-03T05:05:11;2.13;;;1.63;;
39454;SDS011;25155;41.890;23.446;2023-04-03T05:07:38;2.15;;;1.63;;
39454;SDS011;25155;41.890;23.446;2023-04-03T05:10:06;1.92;;;1.60;;
39454;SDS011;25155;41.890;23.446;2023-04-03T05:12:35;3.05;;;1.90;;
39454;SDS011;25155;41.890;23.446;2023-04-03T05:15:02;3.40;;;2.20;;
39454;SDS011;25155;41.890;23.446;2023-04-03T05:17:31;3.75;;;2.60;;
39454;SDS011;25155;41.890;23.446;2023-04-03T05:19:58;3.95;;;2.78;;
39454;SDS011;25155;41.890;23.446;2023-04-03T05:22:25;4.22;;;2.75;;
39454;SDS011;25155;41.890;23.446;2023-04-03T05:24:52;3.92;;;2.40;;
39454;SDS011;25155;41.890;23.446;2023-04-03T05:27:20;3.30;;;2.10;;
39454;SDS011;25155;41.890;23.446;2023-04-03T05:29:49;2.97;;;2.10;;
39454;SDS011;25155;41.890;23.446;2023-04-03T05:32:16;3.08;;;2.15;;
39454;SDS011;25155;41.890;23.446;2023-04-03T05:34:45;2.53;;;1.80;;
39454;SDS011;25155;41.890;23.446;2023-04-03T05:37:12;2.28;;;1.73;;
39454;SDS011;25155;41.890;23.446;2023-04-03T05:39:39;2.20;;;1.60;;
39454;SDS011;25155;41.890;23.446;2023-04-03T05:42:07;1.58;;;1.30;;
39454;SDS011;25155;41.890;23.446;2023-04-03T05:44:34;1.92;;;1.70;;
39454;SDS011;25155;41.890;23.446;2023-04-03T05:47:01;1.48;;;1.30;;
39454;SDS011;25155;41.890;23.446;2023-04-03T05:49:29;1.58;;;1.40;;
39454;SDS011;25155;41.890;23.446;2023-04-03T05:51:57;1.30;;;1.20;;
39454;SDS011;25155;41.890;23.446;2023-04-03T05:54:25;1.77;;;1.30;;
39454;SDS011;25155;41.890;23.446;2023-04-03T05:56:53;1.40;;;1.20;;
39454;SDS011;25155;41.890;23.446;2023-04-03T05:59:20;1.40;;;1.30;;
39454;SDS011;25155;41.890;23.446;2023-04-03T06:01:48;1.65;;;1.33;;
39454;SDS011;25155;41.890;23.446;2023-04-03T06:04:16;2.42;;;1.63;;
39454;SDS011;25155;41.890;23.446;2023-04-03T06:06:48;2.17;;;1.58;;
39454;SDS011;25155;41.890;23.446;2023-04-03T06:09:19;1.65;;;1.50;;
39454;SDS011;25155;41.890;23.446;2023-04-03T06:11:47;1.50;;;1.40;;
39454;SDS011;25155;41.890;23.446;2023-04-03T06:14:14;1.83;;;1.40;;
39454;SDS011;25155;41.890;23.446;2023-04-03T06:16:42;2.10;;;1.40;;
39454;SDS011;25155;41.890;23.446;2023-04-03T06:19:10;2.15;;;1.65;;
39454;SDS011;25155;41.890;23.446;2023-04-03T06:21:38;2.80;;;1.90;;
39454;SDS011;25155;41.890;23.446;2023-04-03T06:24:06;4.13;;;2.67;;
39454;SDS011;25155;41.890;23.446;2023-04-03T06:26:34;5.93;;;3.80;;
39454;SDS011;25155;41.890;23.446;2023-04-03T06:29:02;8.02;;;4.93;;
39454;SDS011;25155;41.890;23.446;2023-04-03T06:31:29;11.18;;;7.80;;
39454;SDS011;25155;41.890;23.446;2023-04-03T06:33:57;11.00;;;7.55;;
39454;SDS011;25155;41.890;23.446;2023-04-03T06:36:24;12.40;;;7.70;;
39454;SDS011;25155;41.890;23.446;2023-04-03T06:38:51;10.25;;;6.53;;
39454;SDS011;25155;41.890;23.446;2023-04-03T06:41:19;7.38;;;5.25;;
39454;SDS011;25155;41.890;23.446;2023-04-03T06:43:48;6.97;;;4.90;;
39454;SDS011;25155;41.890;23.446;2023-04-03T06:46:15;6.07;;;3.88;;
39454;SDS011;25155;41.890;23.446;2023-04-03T06:48:43;5.22;;;3.35;;
39454;SDS011;25155;41.890;23.446;2023-04-03T06:51:17;4.40;;;3.10;;
39454;SDS011;25155;41.890;23.446;2023-04-03T06:53:47;3.90;;;2.45;;
39454;SDS011;25155;41.890;23.446;2023-04-03T06:56:15;3.67;;;2.30;;
39454;SDS011;25155;41.890;23.446;2023-04-03T06:58:43;4.10;;;2.10;;
39454;SDS011;25155;41.890;23.446;2023-04-03T07:01:14;4.10;;;2.58;;
39454;SDS011;25155;41.890;23.446;2023-04-03T07:03:42;5.05;;;2.95;;
39454;SDS011;25155;41.890;23.446;2023-04-03T07:06:11;5.90;;;3.15;;
39454;SDS011;25155;41.890;23.446;2023-04-03T07:08:39;4.00;;;2.72;;
39454;SDS011;25155;41.890;23.446;2023-04-03T07:11:07;5.50;;;3.55;;
39454;SDS011;25155;41.890;23.446;2023-04-03T07:13:35;5.03;;;3.22;;
39454;SDS011;25155;41.890;23.446;2023-04-03T07:16:02;6.78;;;3.97;;
39454;SDS011;25155;41.890;23.446;2023-04-03T07:18:32;16.65;;;11.50;;
39454;SDS011;25155;41.890;23.446;2023-04-03T07:21:00;16.52;;;12.32;;
39454;SDS011;25155;41.890;23.446;2023-04-03T07:23:27;16.25;;;11.07;;
39454;SDS011;25155;41.890;23.446;2023-04-03T07:25:54;15.32;;;11.13;;
39454;SDS011;25155;41.890;23.446;2023-04-03T07:28:22;15.85;;;10.95;;
39454;SDS011;25155;41.890;23.446;2023-04-03T07:30:50;13.38;;;9.20;;
39454;SDS011;25155;41.890;23.446;2023-04-03T07:33:19;10.77;;;8.10;;
39454;SDS011;25155;41.890;23.446;2023-04-03T07:35:50;9.93;;;6.93;;
39454;SDS011;25155;41.890;23.446;2023-04-03T07:38:17;9.45;;;7.25;;
39454;SDS011;25155;41.890;23.446;2023-04-03T07:40:46;40.58;;;30.90;;
39454;SDS011;25155;41.890;23.446;2023-04-03T07:43:13;47.42;;;34.38;;
39454;SDS011;25155;41.890;23.446;2023-04-03T07:45:41;43.78;;;32.15;;
39454;SDS011;25155;41.890;23.446;2023-04-03T07:48:08;39.10;;;29.27;;
39454;SDS011;25155;41.890;23.446;2023-04-03T07:50:36;38.40;;;29.63;;
39454;SDS011;25155;41.890;23.446;2023-04-03T07:53:05;28.80;;;22.00;;
39454;SDS011;25155;41.890;23.446;2023-04-03T07:55:33;23.15;;;17.05;;
39454;SDS011;25155;41.890;23.446;2023-04-03T07:58:05;16.92;;;13.35;;
39454;SDS011;25155;41.890;23.446;2023-04-03T08:00:32;15.25;;;11.50;;
39454;SDS011;25155;41.890;23.446;2023-04-03T08:03:00;11.13;;;9.00;;
39454;SDS011;25155;41.890;23.446;2023-04-03T08:05:27;9.50;;;7.13;;
39454;SDS011;25155;41.890;23.446;2023-04-03T08:07:54;9.15;;;6.70;;
39454;SDS011;25155;41.890;23.446;2023-04-03T08:10:23;10.85;;;8.73;;
39454;SDS011;25155;41.890;23.446;2023-04-03T08:12:50;11.88;;;8.68;;
39454;SDS011;25155;41.890;23.446;2023-04-03T08:15:17;18.10;;;12.32;;
39454;SDS011;25155;41.890;23.446;2023-04-03T08:17:44;26.20;;;19.83;;
39454;SDS011;25155;41.890;23.446;2023-04-03T08:20:11;25.85;;;20.30;;
39454;SDS011;25155;41.890;23.446;2023-04-03T08:22:38;21.15;;;16.38;;
39454;SDS011;25155;41.890;23.446;2023-04-03T08:25:06;17.45;;;12.93;;
39454;SDS011;25155;41.890;23.446;2023-04-03T08:27:35;22.17;;;17.00;;
39454;SDS011;25155;41.890;23.446;2023-04-03T08:30:03;23.17;;;18.20;;
39454;SDS011;25155;41.890;23.446;2023-04-03T08:32:33;24.88;;;17.65;;
39454;SDS011;25155;41.890;23.446;2023-04-03T08:35:01;22.05;;;17.42;;
39454;SDS011;25155;41.890;23.446;2023-04-03T08:37:28;23.73;;;17.92;;
39454;SDS011;25155;41.890;23.446;2023-04-03T08:39:55;27.02;;;20.83;;
39454;SDS011;25155;41.890;23.446;2023-04-03T08:42:27;28.15;;;20.92;;
39454;SDS011;25155;41.890;23.446;2023-04-03T08:45:06;24.45;;;18.17;;
39454;SDS011;25155;41.890;23.446;2023-04-03T08:47:38;24.38;;;18.58;;
39454;SDS011;25155;41.890;23.446;2023-04-03T08:50:11;21.45;;;16.38;;
39454;SDS011;25155;41.890;23.446;2023-04-03T08:52:43;18.67;;;13.30;;
39454;SDS011;25155;41.890;23.446;2023-04-03T08:55:16;26.60;;;19.48;;
39454;SDS011;25155;41.890;23.446;2023-04-03T08:57:52;25.05;;;18.25;;
39454;SDS011;25155;41.890;23.446;2023-04-03T09:00:25;28.85;;;20.25;;
39454;SDS011;25155;41.890;23.446;2023-04-03T09:02:56;18.80;;;13.77;;
39454;SDS011;25155;41.890;23.446;2023-04-03T09:05:28;16.77;;;12.15;;
39454;SDS011;25155;41.890;23.446;2023-04-03T09:08:09;12.15;;;9.30;;
39454;SDS011;25155;41.890;23.446;2023-04-03T09:10:42;10.65;;;7.85;;
39454;SDS011;25155;41.890;23.446;2023-04-03T09:13:13;9.57;;;6.75;;
39454;SDS011;25155;41.890;23.446;2023-04-03T09:18:20;7.38;;;5.10;;
39454;SDS011;25155;41.890;23.446;2023-04-03T09:23:24;5.43;;;3.90;;
39454;SDS011;25155;41.890;23.446;2023-04-03T09:25:56;6.05;;;3.80;;
39454;SDS011;25155;41.890;23.446;2023-04-03T09:28:30;5.18;;;3.42;;
39454;SDS011;25155;41.890;23.446;2023-04-03T09:31:00;5.10;;;3.50;;
39454;SDS011;25155;41.890;23.446;2023-04-03T09:33:32;4.95;;;2.95;;
39454;SDS011;25155;41.890;23.446;2023-04-03T09:36:02;4.85;;;3.13;;
39454;SDS011;25155;41.890;23.446;2023-04-03T09:38:29;4.90;;;3.17;;
39454;SDS011;25155;41.890;23.446;2023-04-03T09:41:04;4.20;;;2.78;;
39454;SDS011;25155;41.890;23.446;2023-04-03T09:43:34;4.80;;;2.80;;
39454;SDS011;25155;41.890;23.446;2023-04-03T09:46:18;4.57;;;3.00;;
39454;SDS011;25155;41.890;23.446;2023-04-03T09:48:52;5.38;;;3.38;;
39454;SDS011;25155;41.890;23.446;2023-04-03T09:51:24;5.25;;;3.67;;
39454;SDS011;25155;41.890;23.446;2023-04-03T09:53:54;5.40;;;3.35;;
39454;SDS011;25155;41.890;23.446;2023-04-03T09:56:23;6.38;;;4.35;;
39454;SDS011;25155;41.890;23.446;2023-04-03T09:59:05;6.97;;;5.00;;
39454;SDS011;25155;41.890;23.446;2023-04-03T10:01:38;6.30;;;4.65;;
39454;SDS011;25155;41.890;23.446;2023-04-03T10:04:09;5.88;;;3.97;;
39454;SDS011;25155;41.890;23.446;2023-04-03T10:06:38;5.45;;;3.85;;
39454;SDS011;25155;41.890;23.446;2023-04-03T10:09:16;5.22;;;3.60;;
39454;SDS011;25155;41.890;23.446;2023-04-03T10:11:59;5.68;;;3.83;;
39454;SDS011;25155;41.890;23.446;2023-04-03T10:14:31;6.45;;;3.90;;
39454;SDS011;25155;41.890;23.446;2023-04-03T10:17:09;11.18;;;8.82;;
39454;SDS011;25155;41.890;23.446;2023-04-03T10:19:45;16.52;;;12.55;;
39454;SDS011;25155;41.890;23.446;2023-04-03T10:22:19;14.50;;;11.55;;
39454;SDS011;25155;41.890;23.446;2023-04-03T10:24:52;14.60;;;10.38;;
39454;SDS011;25155;41.890;23.446;2023-04-03T10:27:29;10.88;;;8.10;;
39454;SDS011;25155;41.890;23.446;2023-04-03T10:30:13;8.85;;;6.88;;
39454;SDS011;25155;41.890;23.446;2023-04-03T10:35:25;8.13;;;5.95;;
39454;SDS011;25155;41.890;23.446;2023-04-03T10:38:04;7.00;;;5.28;;
39454;SDS011;25155;41.890;23.446;2023-04-03T10:40:42;6.80;;;4.80;;
39454;SDS011;25155;41.890;23.446;2023-04-03T10:43:21;7.68;;;5.50;;
39454;SDS011;25155;41.890;23.446;2023-04-03T10:45:59;5.97;;;4.20;;
39454;SDS011;25155;41.890;23.446;2023-04-03T10:48:39;6.07;;;4.15;;
39454;SDS011;25155;41.890;23.446;2023-04-03T10:51:18;5.05;;;3.45;;
39454;SDS011;25155;41.890;23.446;2023-04-03T10:53:55;4.70;;;3.28;;
39454;SDS011;25155;41.890;23.446;2023-04-03T10:56:30;4.60;;;2.88;;
39454;SDS011;25155;41.890;23.446;2023-04-03T10:59:02;4.15;;;2.70;;
39454;SDS011;25155;41.890;23.446;2023-04-03T11:01:42;3.72;;;2.58;;
39454;SDS011;25155;41.890;23.446;2023-04-03T11:04:12;4.88;;;2.88;;
39454;SDS011;25155;41.890;23.446;2023-04-03T11:06:44;3.67;;;2.38;;
39454;SDS011;25155;41.890;23.446;2023-04-03T11:09:19;3.90;;;2.53;;
39454;SDS011;25155;41.890;23.446;2023-04-03T11:11:49;3.33;;;2.25;;
39454;SDS011;25155;41.890;23.446;2023-04-03T11:14:22;2.83;;;2.05;;
39454;SDS011;25155;41.890;23.446;2023-04-03T11:16:59;3.33;;;2.13;;
39454;SDS011;25155;41.890;23.446;2023-04-03T11:19:44;3.03;;;2.05;;
39454;SDS011;25155;41.890;23.446;2023-04-03T11:22:19;3.38;;;2.00;;
39454;SDS011;25155;41.890;23.446;2023-04-03T11:24:53;3.05;;;2.08;;
39454;SDS011;25155;41.890;23.446;2023-04-03T11:27:26;2.97;;;1.92;;
39454;SDS011;25155;41.890;23.446;2023-04-03T11:29:59;3.10;;;2.00;;
39454;SDS011;25155;41.890;23.446;2023-04-03T11:32:31;3.63;;;1.90;;
39454;SDS011;25155;41.890;23.446;2023-04-03T11:35:17;2.17;;;1.60;;
39454;SDS011;25155;41.890;23.446;2023-04-03T11:37:46;2.92;;;1.80;;
39454;SDS011;25155;41.890;23.446;2023-04-03T11:40:20;2.05;;;1.60;;
39454;SDS011;25155;41.890;23.446;2023-04-03T11:42:52;2.50;;;1.50;;
39454;SDS011;25155;41.890;23.446;2023-04-03T11:45:32;1.52;;;1.42;;
39454;SDS011;25155;41.890;23.446;2023-04-03T11:48:41;2.72;;;1.75;;
39454;SDS011;25155;41.890;23.446;2023-04-03T12:00:52;1.42;;;1.33;;
39454;SDS011;25155;41.890;23.446;2023-04-03T12:10:01;1.50;;;1.30;;
39454;SDS011;25155;41.890;23.446;2023-04-03T12:12:57;1.55;;;1.30;;
39454;SDS011;25155;41.890;23.446;2023-04-03T12:15:59;1.27;;;1.10;;
39454;SDS011;25155;41.890;23.446;2023-04-03T12:21:24;1.50;;;1.40;;
39454;SDS011;25155;41.890;23.446;2023-04-03T12:24:36;1.33;;;1.23;;
39454;SDS011;25155;41.890;23.446;2023-04-03T12:27:16;2.15;;;1.70;;
39454;SDS011;25155;41.890;23.446;2023-04-03T12:29:54;3.25;;;2.20;;
39454;SDS011;25155;41.890;23.446;2023-04-03T12:32:46;2.90;;;1.80;;
39454;SDS011;25155;41.890;23.446;2023-04-03T12:35:43;6.40;;;3.25;;
39454;SDS011;25155;41.890;23.446;2023-04-03T12:41:46;8.15;;;5.30;;
39454;SDS011;25155;41.890;23.446;2023-04-03T12:44:36;9.23;;;6.22;;
39454;SDS011;25155;41.890;23.446;2023-04-03T12:47:22;11.63;;;8.00;;
39454;SDS011;25155;41.890;23.446;2023-04-03T12:49:59;8.73;;;6.25;;
39454;SDS011;25155;41.890;23.446;2023-04-03T12:52:36;7.95;;;5.60;;
39454;SDS011;25155;41.890;23.446;2023-04-03T12:55:17;7.78;;;5.38;;
39454;SDS011;25155;41.890;23.446;2023-04-03T12:57:57;5.72;;;3.90;;
39454;SDS011;25155;41.890;23.446;2023-04-03T13:03:52;5.50;;;2.75;;
39454;SDS011;25155;41.890;23.446;2023-04-03T13:06:26;2.60;;;1.77;;
39454;SDS011;25155;41.890;23.446;2023-04-03T13:09:03;5.15;;;2.50;;
39454;SDS011;25155;41.890;23.446;2023-04-03T13:11:41;2.50;;;1.50;;
39454;SDS011;25155;41.890;23.446;2023-04-03T13:14:26;2.70;;;1.80;;
39454;SDS011;25155;41.890;23.446;2023-04-03T13:17:04;1.83;;;1.50;;
39454;SDS011;25155;41.890;23.446;2023-04-03T13:19:44;1.83;;;1.50;;
39454;SDS011;25155;41.890;23.446;2023-04-03T13:22:28;3.90;;;2.90;;
39454;SDS011;25155;41.890;23.446;2023-04-03T13:25:18;5.55;;;3.72;;
39454;SDS011;25155;41.890;23.446;2023-04-03T13:27:55;4.82;;;2.28;;
39454;SDS011;25155;41.890;23.446;2023-04-03T13:30:27;2.72;;;2.08;;
39454;SDS011;25155;41.890;23.446;2023-04-03T13:33:00;2.90;;;1.90;;
39454;SDS011;25155;41.890;23.446;2023-04-03T13:35:31;2.40;;;1.80;;
39454;SDS011;25155;41.890;23.446;2023-04-03T13:38:02;2.53;;;1.80;;
39454;SDS011;25155;41.890;23.446;2023-04-03T13:40:32;2.03;;;1.63;;
39454;SDS011;25155;41.890;23.446;2023-04-03T13:43:00;1.50;;;1.40;;
39454;SDS011;25155;41.890;23.446;2023-04-03T13:45:30;1.20;;;1.10;;
39454;SDS011;25155;41.890;23.446;2023-04-03T13:48:15;1.65;;;1.40;;
39454;SDS011;25155;41.890;23.446;2023-04-03T13:50:55;1.38;;;1.25;;
39454;SDS011;25155;41.890;23.446;2023-04-03T13:53:25;1.33;;;1.23;;
39454;SDS011;25155;41.890;23.446;2023-04-03T13:55:55;3.17;;;2.10;;
39454;SDS011;25155;41.890;23.446;2023-04-03T13:58:25;2.42;;;1.70;;
39454;SDS011;25155;41.890;23.446;2023-04-03T14:00:53;1.60;;;1.40;;
39454;SDS011;25155;41.890;23.446;2023-04-03T14:03:25;1.60;;;1.40;;
39454;SDS011;25155;41.890;23.446;2023-04-03T14:05:54;1.00;;;1.00;;
39454;SDS011;25155;41.890;23.446;2023-04-03T14:08:21;1.00;;;1.00;;
39454;SDS011;25155;41.890;23.446;2023-04-03T14:10:49;1.02;;;1.00;;
39454;SDS011;25155;41.890;23.446;2023-04-03T14:13:18;0.70;;;0.70;;
39454;SDS011;25155;41.890;23.446;2023-04-03T14:15:46;1.20;;;1.10;;
39454;SDS011;25155;41.890;23.446;2023-04-03T14:18:15;1.20;;;1.10;;
39454;SDS011;25155;41.890;23.446;2023-04-03T14:20:47;1.02;;;1.00;;
39454;SDS011;25155;41.890;23.446;2023-04-03T14:23:15;1.23;;;1.10;;
39454;SDS011;25155;41.890;23.446;2023-04-03T14:25:42;0.75;;;0.75;;
39454;SDS011;25155;41.890;23.446;2023-04-03T14:28:15;0.77;;;0.77;;
39454;SDS011;25155;41.890;23.446;2023-04-03T14:30:44;0.90;;;0.90;;
39454;SDS011;25155;41.890;23.446;2023-04-03T14:33:13;1.20;;;1.10;;
39454;SDS011;25155;41.890;23.446;2023-04-03T14:35:42;1.33;;;1.23;;
39454;SDS011;25155;41.890;23.446;2023-04-03T14:38:16;1.50;;;1.40;;
39454;SDS011;25155;41.890;23.446;2023-04-03T14:40:48;1.58;;;1.40;;
39454;SDS011;25155;41.890;23.446;2023-04-03T14:43:16;1.30;;;1.20;;
39454;SDS011;25155;41.890;23.446;2023-04-03T14:45:45;1.35;;;1.25;;
39454;SDS011;25155;41.890;23.446;2023-04-03T14:48:15;0.90;;;0.90;;
39454;SDS011;25155;41.890;23.446;2023-04-03T14:50:45;0.88;;;0.88;;
39454;SDS011;25155;41.890;23.446;2023-04-03T14:53:13;1.00;;;1.00;;
39454;SDS011;25155;41.890;23.446;2023-04-03T14:55:42;1.10;;;1.00;;
39454;SDS011;25155;41.890;23.446;2023-04-03T14:58:12;1.10;;;1.10;;
39454;SDS011;25155;41.890;23.446;2023-04-03T15:00:40;0.98;;;0.93;;
39454;SDS011;25155;41.890;23.446;2023-04-03T15:03:10;1.00;;;1.00;;
39454;SDS011;25155;41.890;23.446;2023-04-03T15:05:41;1.25;;;1.10;;
39454;SDS011;25155;41.890;23.446;2023-04-03T15:08:13;1.10;;;1.10;;
39454;SDS011;25155;41.890;23.446;2023-04-03T15:10:48;1.13;;;1.00;;
39454;SDS011;25155;41.890;23.446;2023-04-03T15:13:15;1.08;;;0.98;;
39454;SDS011;25155;41.890;23.446;2023-04-03T15:15:42;0.90;;;0.90;;
39454;SDS011;25155;41.890;23.446;2023-04-03T15:18:11;0.80;;;0.80;;
39454;SDS011;25155;41.890;23.446;2023-04-03T15:20:42;0.77;;;0.77;;
39454;SDS011;25155;41.890;23.446;2023-04-03T15:23:11;0.80;;;0.80;;
39454;SDS011;25155;41.890;23.446;2023-04-03T15:25:42;0.80;;;0.80;;
39454;SDS011;25155;41.890;23.446;2023-04-03T15:28:12;1.85;;;1.23;;
39454;SDS011;25155;41.890;23.446;2023-04-03T15:30:45;0.63;;;0.63;;